createdAt,value
2019-05-14T00:00:03.595Z,18.55
2019-05-14T00:01:03.740Z,18.63
2019-05-14T00:02:03.461Z,18.58
2019-05-14T00:03:03.391Z,18.57
2019-05-14T00:04:03.326Z,18.54
2019-05-14T00:05:03.258Z,18.51
2019-05-14T00:06:03.190Z,18.51
2019-05-14T00:07:03.118Z,18.54
2019-05-14T00:08:03.053Z,18.33
2019-05-14T00:09:02.978Z,18.20
2019-05-14T00:10:02.936Z,18.08
2019-05-14T00:11:02.848Z,18.17
2019-05-14T00:12:02.966Z,18.17
2019-05-14T00:13:02.709Z,18.18
2019-05-14T00:14:02.639Z,18.27
2019-05-14T00:15:02.572Z,18.25
2019-05-14T00:16:02.503Z,18.21
2019-05-14T00:17:02.434Z,18.20
2019-05-14T00:18:02.365Z,18.33
2019-05-14T00:19:02.297Z,18.36
2019-05-14T00:20:09.437Z,18.32
2019-05-14T00:21:02.201Z,18.23
2019-05-14T00:22:02.225Z,18.14
2019-05-14T00:23:02.019Z,18.08
2019-05-14T00:24:01.971Z,17.92
2019-05-14T00:25:01.891Z,17.92
2019-05-14T00:26:02.056Z,17.87
2019-05-14T00:27:02.186Z,17.87
2019-05-14T00:28:01.679Z,17.86
2019-05-14T00:29:01.763Z,17.89
2019-05-14T00:30:02.461Z,17.79
2019-05-14T00:31:02.838Z,17.96
2019-05-14T00:32:01.917Z,17.96
2019-05-14T00:33:01.452Z,17.95
2019-05-14T00:34:01.723Z,17.95
2019-05-14T00:35:02.003Z,18.08
2019-05-14T00:36:02.084Z,18.02
2019-05-14T00:37:01.661Z,18.03
2019-05-14T00:38:01.468Z,18.02
2019-05-14T00:39:01.841Z,17.93
2019-05-14T00:40:01.371Z,17.92
2019-05-14T00:41:01.920Z,17.89
2019-05-14T00:42:01.813Z,17.89
2019-05-14T00:43:02.690Z,17.95
2019-05-14T00:44:01.911Z,18.00
2019-05-14T00:45:01.227Z,18.00
2019-05-14T00:46:01.666Z,18.14
2019-05-14T00:47:02.206Z,18.14
2019-05-14T00:48:01.509Z,18.00
2019-05-14T00:49:01.824Z,18.02
2019-05-14T00:50:02.208Z,18.08
2019-05-14T00:51:02.148Z,17.95
2019-05-14T00:52:02.062Z,17.90
2019-05-14T00:53:01.937Z,17.95
2019-05-14T00:54:01.679Z,17.96
2019-05-14T00:55:01.133Z,17.93
2019-05-14T00:56:01.905Z,17.97
2019-05-14T00:57:01.415Z,18.02
2019-05-14T00:58:02.139Z,18.07
2019-05-14T00:59:01.416Z,18.03
2019-05-14T01:00:01.068Z,18.07
2019-05-14T01:01:01.519Z,18.17
2019-05-14T01:02:02.663Z,18.07
2019-05-14T01:02:59.273Z,18.00
2019-05-14T01:04:01.210Z,18.03
2019-05-14T01:04:59.134Z,18.00
2019-05-14T01:05:59.073Z,18.05
2019-05-14T01:07:01.410Z,18.03
2019-05-14T01:07:58.931Z,17.92
2019-05-14T01:09:01.051Z,17.82
2019-05-14T01:09:58.794Z,17.78
2019-05-14T01:10:58.728Z,17.74
2019-05-14T01:11:58.655Z,17.74
2019-05-14T01:13:00.974Z,17.78
2019-05-14T01:13:58.513Z,17.84
2019-05-14T01:15:07.746Z,17.78
2019-05-14T01:15:58.377Z,17.86
2019-05-14T01:16:58.322Z,17.93
2019-05-14T01:17:58.242Z,17.86
2019-05-14T01:18:58.169Z,17.82
2019-05-14T01:19:58.107Z,17.90
2019-05-14T01:20:58.042Z,17.95
2019-05-14T01:21:57.968Z,17.90
2019-05-14T01:22:57.902Z,17.87
2019-05-14T01:23:57.828Z,17.77
2019-05-14T01:24:57.761Z,17.84
2019-05-14T01:25:57.692Z,17.64
2019-05-14T01:26:57.620Z,17.68
2019-05-14T01:27:57.551Z,17.64
2019-05-14T01:28:57.789Z,17.71
2019-05-14T01:29:57.416Z,17.74
2019-05-14T01:30:57.348Z,17.74
2019-05-14T01:31:57.279Z,17.72
2019-05-14T01:32:57.205Z,17.71
2019-05-14T01:33:57.152Z,17.79
2019-05-14T01:34:57.074Z,17.63
2019-05-14T01:35:57.001Z,17.46
2019-05-14T01:36:56.936Z,17.36
2019-05-14T01:37:56.870Z,17.44
2019-05-14T01:38:56.798Z,17.49
2019-05-14T01:39:56.725Z,17.44
2019-05-14T01:40:56.660Z,17.51
2019-05-14T01:41:56.590Z,17.48
2019-05-14T01:42:56.519Z,17.55
2019-05-14T01:43:56.561Z,17.49
2019-05-14T01:44:56.398Z,17.55
2019-05-14T01:45:56.312Z,17.51
2019-05-14T01:46:56.242Z,17.55
2019-05-14T01:47:56.175Z,17.49
2019-05-14T01:48:56.105Z,17.51
2019-05-14T01:49:56.037Z,17.38
2019-05-14T01:50:55.983Z,17.37
2019-05-14T01:51:55.896Z,17.36
2019-05-14T01:52:55.829Z,17.28
2019-05-14T01:53:55.760Z,17.31
2019-05-14T01:54:55.691Z,17.44
2019-05-14T01:55:55.621Z,17.46
2019-05-14T01:56:55.552Z,17.44
2019-05-14T01:57:55.483Z,17.62
2019-05-14T01:58:55.416Z,17.54
2019-05-14T01:59:55.346Z,17.55
2019-05-14T02:00:55.275Z,17.56
2019-05-14T02:01:55.212Z,17.49
2019-05-14T02:02:55.142Z,17.56
2019-05-14T02:03:55.070Z,17.55
2019-05-14T02:04:55.000Z,17.51
2019-05-14T02:05:54.932Z,17.54
2019-05-14T02:06:54.864Z,17.51
2019-05-14T02:07:54.791Z,17.44
2019-05-14T02:08:54.724Z,17.43
2019-05-14T02:09:54.686Z,17.49
2019-05-14T02:10:54.591Z,17.48
2019-05-14T02:11:54.516Z,17.46
2019-05-14T02:12:54.447Z,17.41
2019-05-14T02:13:54.379Z,17.43
2019-05-14T02:14:54.311Z,17.28
2019-05-14T02:15:54.240Z,17.23
2019-05-14T02:16:54.170Z,17.22
2019-05-14T02:17:54.100Z,17.23
2019-05-14T02:18:54.030Z,17.30
2019-05-14T02:19:53.965Z,17.33
2019-05-14T02:20:53.894Z,17.26
2019-05-14T02:21:53.823Z,17.30
2019-05-14T02:22:53.756Z,17.28
2019-05-14T02:23:53.690Z,17.14
2019-05-14T02:24:53.618Z,17.11
2019-05-14T02:25:53.561Z,17.01
2019-05-14T02:26:53.477Z,17.00
2019-05-14T02:27:53.409Z,16.98
2019-05-14T02:28:53.338Z,17.04
2019-05-14T02:29:53.294Z,17.14
2019-05-14T02:30:57.922Z,17.06
2019-05-14T02:31:53.136Z,17.07
2019-05-14T02:32:53.063Z,17.00
2019-05-14T02:33:52.988Z,16.93
2019-05-14T02:34:52.930Z,17.04
2019-05-14T02:35:52.855Z,16.94
2019-05-14T02:36:52.788Z,16.91
2019-05-14T02:37:52.718Z,17.08
2019-05-14T02:38:52.648Z,17.15
2019-05-14T02:39:52.577Z,17.18
2019-05-14T02:40:52.515Z,17.14
2019-05-14T02:41:52.438Z,17.16
2019-05-14T02:42:52.400Z,17.25
2019-05-14T02:43:52.298Z,17.16
2019-05-14T02:44:52.230Z,17.23
2019-05-14T02:46:09.582Z,17.21
2019-05-14T02:46:52.093Z,17.23
2019-05-14T02:47:52.034Z,17.14
2019-05-14T02:48:51.950Z,17.26
2019-05-14T02:49:51.884Z,17.22
2019-05-14T02:50:51.814Z,17.19
2019-05-14T02:51:51.745Z,17.18
2019-05-14T02:52:51.677Z,16.97
2019-05-14T02:53:51.634Z,17.08
2019-05-14T02:54:51.555Z,17.08
2019-05-14T02:55:51.585Z,17.07
2019-05-14T02:56:51.403Z,17.08
2019-05-14T02:57:51.326Z,17.00
2019-05-14T02:58:51.269Z,16.93
2019-05-14T02:59:51.191Z,16.83
2019-05-14T03:00:51.124Z,16.75
2019-05-14T03:01:51.051Z,16.71
2019-05-14T03:02:50.996Z,16.71
2019-05-14T03:03:50.912Z,16.49
2019-05-14T03:04:50.845Z,16.58
2019-05-14T03:05:50.773Z,16.66
2019-05-14T03:06:50.704Z,16.73
2019-05-14T03:07:50.635Z,16.66
2019-05-14T03:08:50.571Z,16.68
2019-05-14T03:09:50.593Z,16.78
2019-05-14T03:10:50.836Z,16.66
2019-05-14T03:11:50.364Z,16.56
2019-05-14T03:12:50.589Z,16.56
2019-05-14T03:13:50.219Z,16.49
2019-05-14T03:14:50.318Z,16.64
2019-05-14T03:15:50.297Z,16.64
2019-05-14T03:16:50.019Z,16.63
2019-05-14T03:17:49.951Z,16.73
2019-05-14T03:18:50.344Z,16.70
2019-05-14T03:19:49.905Z,16.71
2019-05-14T03:20:50.368Z,16.67
2019-05-14T03:21:50.395Z,16.71
2019-05-14T03:23:01.708Z,16.68
2019-05-14T03:23:49.868Z,16.67
2019-05-14T03:24:50.332Z,16.60
2019-05-14T03:25:49.635Z,16.67
2019-05-14T03:26:50.202Z,16.64
2019-05-14T03:27:49.849Z,16.52
2019-05-14T03:28:49.878Z,16.58
2019-05-14T03:29:49.912Z,16.61
2019-05-14T03:30:52.012Z,16.67
2019-05-14T03:31:52.735Z,16.70
2019-05-14T03:32:52.645Z,16.71
2019-05-14T03:33:52.432Z,16.70
2019-05-14T03:34:52.815Z,16.49
2019-05-14T03:35:57.399Z,16.66
2019-05-14T03:36:52.827Z,16.46
2019-05-14T03:37:49.611Z,16.38
2019-05-14T03:38:50.198Z,16.33
2019-05-14T03:39:49.363Z,16.24
2019-05-14T03:40:49.383Z,16.25
2019-05-14T03:41:49.980Z,16.30
2019-05-14T03:42:49.092Z,16.42
2019-05-14T03:43:49.387Z,16.46
2019-05-14T03:44:49.033Z,16.49
2019-05-14T03:45:49.517Z,16.49
2019-05-14T03:46:54.650Z,16.39
2019-05-14T03:47:50.368Z,16.46
2019-05-14T03:48:49.283Z,16.39
2019-05-14T03:49:49.822Z,16.41
2019-05-14T03:50:49.488Z,16.30
2019-05-14T03:51:49.772Z,16.38
2019-05-14T03:52:49.857Z,16.27
2019-05-14T03:54:00.667Z,16.21
2019-05-14T03:54:49.658Z,16.25
2019-05-14T03:55:50.004Z,16.31
2019-05-14T03:56:49.709Z,16.38
2019-05-14T03:57:49.758Z,16.28
2019-05-14T03:58:49.408Z,16.30
2019-05-14T03:59:49.581Z,16.33
2019-05-14T04:00:50.141Z,16.41
2019-05-14T04:01:50.692Z,16.30
2019-05-14T04:02:49.096Z,16.33
2019-05-14T04:03:50.036Z,16.23
2019-05-14T04:04:49.829Z,16.17
2019-05-14T04:05:49.444Z,16.30
2019-05-14T04:06:49.366Z,16.11
2019-05-14T04:07:49.917Z,16.20
2019-05-14T04:08:49.524Z,15.93
2019-05-14T04:09:49.365Z,16.05
2019-05-14T04:10:50.596Z,16.04
2019-05-14T04:11:46.162Z,16.02
2019-05-14T04:12:48.863Z,16.17
2019-05-14T04:13:49.421Z,16.07
2019-05-14T04:14:45.955Z,16.04
2019-05-14T04:15:45.890Z,16.02
2019-05-14T04:17:01.603Z,16.11
2019-05-14T04:17:45.740Z,16.01
2019-05-14T04:18:45.670Z,16.02
2019-05-14T04:19:45.598Z,16.02
2019-05-14T04:20:45.531Z,16.02
2019-05-14T04:21:45.464Z,16.05
2019-05-14T04:22:45.390Z,16.00
2019-05-14T04:23:45.326Z,15.93
2019-05-14T04:24:45.248Z,16.00
2019-05-14T04:25:45.172Z,16.01
2019-05-14T04:26:58.289Z,16.04
2019-05-14T04:27:45.040Z,16.07
2019-05-14T04:28:44.990Z,16.09
2019-05-14T04:29:44.901Z,16.15
2019-05-14T04:30:44.825Z,16.20
2019-05-14T04:31:44.756Z,16.25
2019-05-14T04:32:44.702Z,16.28
2019-05-14T04:33:44.617Z,16.27
2019-05-14T04:34:44.548Z,16.09
2019-05-14T04:35:44.478Z,16.00
2019-05-14T04:36:44.402Z,15.93
2019-05-14T04:37:44.335Z,15.87
2019-05-14T04:38:44.265Z,15.76
2019-05-14T04:39:44.194Z,15.84
2019-05-14T04:40:44.124Z,15.80
2019-05-14T04:41:44.053Z,15.75
2019-05-14T04:42:43.985Z,15.72
2019-05-14T04:43:43.914Z,15.78
2019-05-14T04:44:43.847Z,15.74
2019-05-14T04:45:43.774Z,15.72
2019-05-14T04:46:43.703Z,15.69
2019-05-14T04:47:43.634Z,15.82
2019-05-14T04:48:44.261Z,15.83
2019-05-14T04:49:43.493Z,15.89
2019-05-14T04:50:43.428Z,15.90
2019-05-14T04:51:43.349Z,15.84
2019-05-14T04:52:43.284Z,15.82
2019-05-14T04:53:43.206Z,15.92
2019-05-14T04:54:43.153Z,15.94
2019-05-14T04:55:43.071Z,15.92
2019-05-14T04:56:43.001Z,16.05
2019-05-14T04:57:42.933Z,16.00
2019-05-14T04:58:42.869Z,15.93
2019-05-14T04:59:42.791Z,15.96
2019-05-14T05:00:42.740Z,16.02
2019-05-14T05:01:42.649Z,15.92
2019-05-14T05:02:42.584Z,15.93
2019-05-14T05:03:42.506Z,16.00
2019-05-14T05:04:42.439Z,16.07
2019-05-14T05:05:42.370Z,16.05
2019-05-14T05:06:42.296Z,16.05
2019-05-14T05:07:42.230Z,15.93
2019-05-14T05:08:42.156Z,15.97
2019-05-14T05:09:42.092Z,16.00
2019-05-14T05:10:42.015Z,15.97
2019-05-14T05:11:41.944Z,16.01
2019-05-14T05:12:41.882Z,16.00
2019-05-14T05:13:41.802Z,15.94
2019-05-14T05:14:41.736Z,16.00
2019-05-14T05:15:41.665Z,16.05
2019-05-14T05:16:41.593Z,15.94
2019-05-14T05:17:48.200Z,16.01
2019-05-14T05:18:41.455Z,16.04
2019-05-14T05:19:45.434Z,16.12
2019-05-14T05:20:41.312Z,16.01
2019-05-14T05:21:41.245Z,16.08
2019-05-14T05:22:41.172Z,16.12
2019-05-14T05:23:41.103Z,16.17
2019-05-14T05:24:41.283Z,16.15
2019-05-14T05:25:40.957Z,16.21
2019-05-14T05:26:40.891Z,16.17
2019-05-14T05:27:40.829Z,16.17
2019-05-14T05:28:40.751Z,16.20
2019-05-14T05:29:40.682Z,16.08
2019-05-14T05:30:40.612Z,16.01
2019-05-14T05:31:40.541Z,16.01
2019-05-14T05:32:40.467Z,15.93
2019-05-14T05:33:40.399Z,16.09
2019-05-14T05:34:40.534Z,15.96
2019-05-14T05:35:42.313Z,16.00
2019-05-14T05:36:40.197Z,15.90
2019-05-14T05:37:40.122Z,15.96
2019-05-14T05:38:40.055Z,16.01
2019-05-14T05:39:39.982Z,15.94
2019-05-14T05:40:39.920Z,15.94
2019-05-14T05:41:39.842Z,15.92
2019-05-14T05:42:39.778Z,16.00
2019-05-14T05:43:40.631Z,16.01
2019-05-14T05:44:40.251Z,16.01
2019-05-14T05:45:39.564Z,15.94
2019-05-14T05:46:41.438Z,16.02
2019-05-14T05:47:54.107Z,16.12
2019-05-14T05:48:39.499Z,16.20
2019-05-14T05:49:39.779Z,16.23
2019-05-14T05:50:40.525Z,16.35
2019-05-14T05:51:39.564Z,16.31
2019-05-14T05:52:39.078Z,16.31
2019-05-14T05:53:39.544Z,16.35
2019-05-14T05:54:38.933Z,16.35
2019-05-14T05:55:39.415Z,16.35
2019-05-14T05:56:38.963Z,16.50
2019-05-14T05:57:39.444Z,16.42
2019-05-14T05:58:39.780Z,16.48
2019-05-14T05:59:39.346Z,16.28
2019-05-14T06:00:40.039Z,16.34
2019-05-14T06:01:45.815Z,16.34
2019-05-14T06:02:40.016Z,16.30
2019-05-14T06:03:39.313Z,16.33
2019-05-14T06:04:39.367Z,16.28
2019-05-14T06:05:38.868Z,16.35
2019-05-14T06:06:39.024Z,16.45
2019-05-14T06:07:39.416Z,16.43
2019-05-14T06:08:38.804Z,16.42
2019-05-14T06:09:38.254Z,16.33
2019-05-14T06:10:40.004Z,16.27
2019-05-14T06:11:38.276Z,16.33
2019-05-14T06:12:38.790Z,16.41
2019-05-14T06:13:39.016Z,16.46
2019-05-14T06:14:38.214Z,16.45
2019-05-14T06:15:45.656Z,16.50
2019-05-14T06:16:38.528Z,16.42
2019-05-14T06:17:39.102Z,16.49
2019-05-14T06:18:39.094Z,16.45
2019-05-14T06:19:38.235Z,16.46
2019-05-14T06:20:38.672Z,16.63
2019-05-14T06:21:39.558Z,16.53
2019-05-14T06:22:38.481Z,16.60
2019-05-14T06:23:38.565Z,16.60
2019-05-14T06:24:39.018Z,16.64
2019-05-14T06:25:39.774Z,16.64
2019-05-14T06:26:38.387Z,16.68
2019-05-14T06:27:38.005Z,16.73
2019-05-14T06:28:40.354Z,16.70
2019-05-14T06:29:38.241Z,16.56
2019-05-14T06:30:39.318Z,16.45
2019-05-14T06:31:38.712Z,16.41
2019-05-14T06:32:38.594Z,16.58
2019-05-14T06:33:39.124Z,16.57
2019-05-14T06:34:38.263Z,16.75
2019-05-14T06:35:39.333Z,16.81
2019-05-14T06:36:36.037Z,16.79
2019-05-14T06:37:38.294Z,16.83
2019-05-14T06:38:38.588Z,17.00
2019-05-14T06:39:35.834Z,16.88
2019-05-14T06:40:35.768Z,16.94
2019-05-14T06:41:40.136Z,16.98
2019-05-14T06:42:35.620Z,17.21
2019-05-14T06:43:35.568Z,17.23
2019-05-14T06:44:35.484Z,17.22
2019-05-14T06:45:35.418Z,17.23
2019-05-14T06:46:35.346Z,17.41
2019-05-14T06:47:35.290Z,17.41
2019-05-14T06:48:35.228Z,17.46
2019-05-14T06:49:35.142Z,17.52
2019-05-14T06:50:35.079Z,17.62
2019-05-14T06:51:35.008Z,17.52
2019-05-14T06:52:34.948Z,17.43
2019-05-14T06:53:34.872Z,17.44
2019-05-14T06:54:34.809Z,17.62
2019-05-14T06:55:34.732Z,17.58
2019-05-14T06:56:34.664Z,17.56
2019-05-14T06:57:34.596Z,17.77
2019-05-14T06:58:34.531Z,17.79
2019-05-14T06:59:34.464Z,17.81
2019-05-14T07:00:34.396Z,17.78
2019-05-14T07:01:34.330Z,17.77
2019-05-14T07:02:34.259Z,17.75
2019-05-14T07:03:34.192Z,17.78
2019-05-14T07:04:34.130Z,17.82
2019-05-14T07:05:34.058Z,17.79
2019-05-14T07:06:33.994Z,17.92
2019-05-14T07:07:33.924Z,17.93
2019-05-14T07:08:33.855Z,18.03
2019-05-14T07:09:33.788Z,18.12
2019-05-14T07:10:33.722Z,18.20
2019-05-14T07:11:33.651Z,18.29
2019-05-14T07:12:33.584Z,18.30
2019-05-14T07:13:33.521Z,18.39
2019-05-14T07:14:33.453Z,18.50
2019-05-14T07:15:33.380Z,18.50
2019-05-14T07:16:33.321Z,18.51
2019-05-14T07:17:33.246Z,18.44
2019-05-14T07:18:45.630Z,18.33
2019-05-14T07:19:33.123Z,18.26
2019-05-14T07:20:33.050Z,18.21
2019-05-14T07:21:32.979Z,18.21
2019-05-14T07:22:32.911Z,18.15
2019-05-14T07:23:32.851Z,18.05
2019-05-14T07:24:32.778Z,18.00
2019-05-14T07:25:32.726Z,18.08
2019-05-14T07:26:32.641Z,18.07
2019-05-14T07:27:32.575Z,17.86
2019-05-14T07:28:32.509Z,17.78
2019-05-14T07:29:32.442Z,17.92
2019-05-14T07:30:32.379Z,17.93
2019-05-14T07:31:32.316Z,17.95
2019-05-14T07:32:32.239Z,17.96
2019-05-14T07:33:32.168Z,17.93
2019-05-14T07:34:32.219Z,18.05
2019-05-14T07:35:32.035Z,17.96
2019-05-14T07:36:31.968Z,17.97
2019-05-14T07:37:31.898Z,17.99
2019-05-14T07:38:31.837Z,17.66
2019-05-14T07:39:31.768Z,17.49
2019-05-14T07:40:31.698Z,17.52
2019-05-14T07:41:31.636Z,17.70
2019-05-14T07:42:31.568Z,17.81
2019-05-14T07:43:31.498Z,17.92
2019-05-14T07:44:31.430Z,18.02
2019-05-14T07:45:33.313Z,18.08
2019-05-14T07:46:31.295Z,18.25
2019-05-14T07:47:31.230Z,18.37
2019-05-14T07:48:31.163Z,18.50
2019-05-14T07:49:31.089Z,18.63
2019-05-14T07:50:31.028Z,18.80
2019-05-14T07:51:30.977Z,19.02
2019-05-14T07:52:30.894Z,19.13
2019-05-14T07:53:38.803Z,19.21
2019-05-14T07:54:30.758Z,19.21
2019-05-14T07:55:30.709Z,19.28
2019-05-14T07:56:30.629Z,19.22
2019-05-14T07:57:30.564Z,19.07
2019-05-14T07:58:30.496Z,19.06
2019-05-14T07:59:30.425Z,19.18
2019-05-14T08:00:30.360Z,19.10
2019-05-14T08:01:30.298Z,19.14
2019-05-14T08:02:30.231Z,19.02
2019-05-14T08:03:30.171Z,18.82
2019-05-14T08:04:30.094Z,18.92
2019-05-14T08:05:30.028Z,18.95
2019-05-14T08:06:29.965Z,19.06
2019-05-14T08:07:29.892Z,19.10
2019-05-14T08:08:29.831Z,19.11
2019-05-14T08:09:29.761Z,19.10
2019-05-14T08:10:29.692Z,19.04
2019-05-14T08:11:29.626Z,18.91
2019-05-14T08:12:29.558Z,19.04
2019-05-14T08:13:29.494Z,19.04
2019-05-14T08:14:39.922Z,19.18
2019-05-14T08:15:29.361Z,19.33
2019-05-14T08:16:29.330Z,19.40
2019-05-14T08:17:29.255Z,19.39
2019-05-14T08:18:29.359Z,19.37
2019-05-14T08:19:31.505Z,19.36
2019-05-14T08:20:29.030Z,19.39
2019-05-14T08:21:29.433Z,19.54
2019-05-14T08:22:29.239Z,19.54
2019-05-14T08:23:28.831Z,19.25
2019-05-14T08:24:30.079Z,19.37
2019-05-14T08:25:28.698Z,19.21
2019-05-14T08:26:29.329Z,19.29
2019-05-14T08:27:31.092Z,19.25
2019-05-14T08:28:29.076Z,19.37
2019-05-14T08:29:28.747Z,19.48
2019-05-14T08:30:28.442Z,19.59
2019-05-14T08:31:29.319Z,19.58
2019-05-14T08:32:28.527Z,19.71
2019-05-14T08:33:29.051Z,19.68
2019-05-14T08:34:31.801Z,19.77
2019-05-14T08:35:29.073Z,20.02
2019-05-14T08:36:28.635Z,20.05
2019-05-14T08:37:28.059Z,20.02
2019-05-14T08:38:28.427Z,20.05
2019-05-14T08:39:28.588Z,20.01
2019-05-14T08:40:28.764Z,19.99
2019-05-14T08:41:28.869Z,19.98
2019-05-14T08:42:29.077Z,19.81
2019-05-14T08:43:29.249Z,19.78
2019-05-14T08:44:29.395Z,19.81
2019-05-14T08:45:28.383Z,19.77
2019-05-14T08:46:28.301Z,19.86
2019-05-14T08:47:29.164Z,20.01
2019-05-14T08:48:29.658Z,20.05
2019-05-14T08:49:38.923Z,20.20
2019-05-14T08:50:28.098Z,20.24
2019-05-14T08:51:29.544Z,20.35
2019-05-14T08:52:28.777Z,20.39
2019-05-14T08:53:28.787Z,20.21
2019-05-14T08:54:28.402Z,20.11
2019-05-14T08:55:26.714Z,19.99
2019-05-14T08:56:28.151Z,19.92
2019-05-14T08:57:28.847Z,19.98
2019-05-14T08:58:26.668Z,20.06
2019-05-14T08:59:28.687Z,20.16
2019-05-14T09:00:28.566Z,20.13
2019-05-14T09:01:29.073Z,20.02
2019-05-14T09:02:28.502Z,20.03
2019-05-14T09:03:28.569Z,20.03
2019-05-14T09:04:29.784Z,19.98
2019-05-14T09:05:26.053Z,20.08
2019-05-14T09:06:25.991Z,19.99
2019-05-14T09:07:25.924Z,20.03
2019-05-14T09:08:28.286Z,20.11
2019-05-14T09:09:25.791Z,20.16
2019-05-14T09:10:28.393Z,20.28
2019-05-14T09:11:26.393Z,20.26
2019-05-14T09:12:27.936Z,20.35
2019-05-14T09:13:25.528Z,20.35
2019-05-14T09:14:25.463Z,20.26
2019-05-14T09:15:25.395Z,20.23
2019-05-14T09:16:41.955Z,20.36
2019-05-14T09:17:25.266Z,20.36
2019-05-14T09:18:25.202Z,20.54
2019-05-14T09:19:25.162Z,20.67
2019-05-14T09:20:25.078Z,20.77
2019-05-14T09:21:25.006Z,20.89
2019-05-14T09:22:24.942Z,20.88
2019-05-14T09:23:24.876Z,20.91
2019-05-14T09:24:24.812Z,20.74
2019-05-14T09:25:24.743Z,20.80
2019-05-14T09:26:24.674Z,20.85
2019-05-14T09:27:24.617Z,20.74
2019-05-14T09:28:24.545Z,20.94
2019-05-14T09:30:08.992Z,20.94
2019-05-14T09:30:24.455Z,20.95
2019-05-14T09:31:24.358Z,20.91
2019-05-14T09:32:24.294Z,20.91
2019-05-14T09:33:24.476Z,20.92
2019-05-14T09:34:24.154Z,20.82
2019-05-14T09:35:24.086Z,20.88
2019-05-14T09:36:24.472Z,20.91
2019-05-14T09:37:23.952Z,20.92
2019-05-14T09:38:23.892Z,20.73
2019-05-14T09:39:23.827Z,20.52
2019-05-14T09:40:23.763Z,20.52
2019-05-14T09:41:23.751Z,20.64
2019-05-14T09:42:23.631Z,20.73
2019-05-14T09:43:23.563Z,20.77
2019-05-14T09:44:23.504Z,20.82
2019-05-14T09:45:23.438Z,20.82
2019-05-14T09:46:23.368Z,20.92
2019-05-14T09:47:23.303Z,20.91
2019-05-14T09:48:23.237Z,21.04
2019-05-14T09:49:23.170Z,21.12
2019-05-14T09:50:23.711Z,21.03
2019-05-14T09:51:23.041Z,21.07
2019-05-14T09:52:22.978Z,21.13
2019-05-14T09:53:22.911Z,21.24
2019-05-14T09:54:22.854Z,21.17
2019-05-14T09:55:22.786Z,21.10
2019-05-14T09:56:22.716Z,20.88
2019-05-14T09:57:22.652Z,20.80
2019-05-14T09:58:22.580Z,20.70
2019-05-14T09:59:22.519Z,20.79
2019-05-14T10:00:22.455Z,20.85
2019-05-14T10:01:22.391Z,20.95
2019-05-14T10:02:22.325Z,21.06
2019-05-14T10:03:22.256Z,21.09
2019-05-14T10:04:22.192Z,21.13
2019-05-14T10:05:22.135Z,21.27
2019-05-14T10:06:22.064Z,21.17
2019-05-14T10:07:21.993Z,21.14
2019-05-14T10:08:21.930Z,21.17
2019-05-14T10:09:21.870Z,21.07
2019-05-14T10:10:21.800Z,21.10
2019-05-14T10:11:21.764Z,21.17
2019-05-14T10:12:21.681Z,21.17
2019-05-14T10:13:21.604Z,21.14
2019-05-14T10:14:21.536Z,21.31
2019-05-14T10:15:21.477Z,21.35
2019-05-14T10:16:21.413Z,21.34
2019-05-14T10:17:21.342Z,21.43
2019-05-14T10:18:21.294Z,21.31
2019-05-14T10:19:21.212Z,21.37
2019-05-14T10:20:36.710Z,21.50
2019-05-14T10:21:21.084Z,21.40
2019-05-14T10:22:21.017Z,21.43
2019-05-14T10:23:20.956Z,21.49
2019-05-14T10:24:20.888Z,21.52
2019-05-14T10:25:20.824Z,21.40
2019-05-14T10:26:20.757Z,21.54
2019-05-14T10:27:20.690Z,21.65
2019-05-14T10:28:20.629Z,21.68
2019-05-14T10:29:20.567Z,21.54
2019-05-14T10:30:20.501Z,21.59
2019-05-14T10:31:20.427Z,21.56
2019-05-14T10:32:20.424Z,21.53
2019-05-14T10:33:20.296Z,21.68
2019-05-14T10:34:20.238Z,21.71
2019-05-14T10:35:20.176Z,21.71
2019-05-14T10:36:20.107Z,21.71
2019-05-14T10:37:20.046Z,21.74
2019-05-14T10:38:19.976Z,21.92
2019-05-14T10:39:19.911Z,21.90
2019-05-14T10:40:19.846Z,21.90
2019-05-14T10:41:19.781Z,21.68
2019-05-14T10:42:20.289Z,21.72
2019-05-14T10:43:19.663Z,21.88
2019-05-14T10:44:19.587Z,21.99
2019-05-14T10:45:19.522Z,21.98
2019-05-14T10:46:19.557Z,22.03
2019-05-14T10:47:19.393Z,22.02
2019-05-14T10:48:19.339Z,22.15
2019-05-14T10:49:23.516Z,22.05
2019-05-14T10:50:19.195Z,21.99
2019-05-14T10:51:19.132Z,22.09
2019-05-14T10:52:19.862Z,22.17
2019-05-14T10:53:20.338Z,22.15
2019-05-14T10:54:25.165Z,22.09
2019-05-14T10:55:18.872Z,21.94
2019-05-14T10:56:19.572Z,22.03
2019-05-14T10:57:18.750Z,21.98
2019-05-14T10:58:19.543Z,22.09
2019-05-14T10:59:18.614Z,22.09
2019-05-14T11:00:18.713Z,22.14
2019-05-14T11:01:22.360Z,22.15
2019-05-14T11:02:18.646Z,22.20
2019-05-14T11:03:18.684Z,22.18
2019-05-14T11:04:19.027Z,22.28
2019-05-14T11:05:18.816Z,22.35
2019-05-14T11:06:18.765Z,22.33
2019-05-14T11:07:18.587Z,22.40
2019-05-14T11:08:18.928Z,22.45
2019-05-14T11:09:18.198Z,22.45
2019-05-14T11:10:19.446Z,22.46
2019-05-14T11:11:18.523Z,22.54
2019-05-14T11:12:19.338Z,22.47
2019-05-14T11:13:19.006Z,22.51
2019-05-14T11:14:19.257Z,22.51
2019-05-14T11:15:19.169Z,22.55
2019-05-14T11:16:19.012Z,22.49
2019-05-14T11:17:19.676Z,22.67
2019-05-14T11:18:19.619Z,22.60
2019-05-14T11:19:18.812Z,22.61
2019-05-14T11:20:19.172Z,22.62
2019-05-14T11:21:25.741Z,22.58
2019-05-14T11:22:18.437Z,22.64
2019-05-14T11:23:18.483Z,22.65
2019-05-14T11:24:18.915Z,22.60
2019-05-14T11:25:19.430Z,22.68
2019-05-14T11:26:18.434Z,22.72
2019-05-14T11:27:18.667Z,22.65
2019-05-14T11:28:19.057Z,22.68
2019-05-14T11:29:18.578Z,22.75
2019-05-14T11:30:19.036Z,22.86
2019-05-14T11:31:19.019Z,22.88
2019-05-14T11:32:18.465Z,22.70
2019-05-14T11:33:18.727Z,22.72
2019-05-14T11:34:19.044Z,22.79
2019-05-14T11:35:18.971Z,22.76
2019-05-14T11:36:18.554Z,22.77
2019-05-14T11:37:18.546Z,22.77
2019-05-14T11:38:28.511Z,22.82
2019-05-14T11:39:17.956Z,22.79
2019-05-14T11:40:18.711Z,22.77
2019-05-14T11:41:18.433Z,22.80
2019-05-14T11:42:15.827Z,22.80
2019-05-14T11:43:15.756Z,22.79
2019-05-14T11:44:15.693Z,22.82
2019-05-14T11:45:15.627Z,22.88
2019-05-14T11:46:15.575Z,22.88
2019-05-14T11:47:15.497Z,22.94
2019-05-14T11:48:15.431Z,22.94
2019-05-14T11:49:15.369Z,22.92
2019-05-14T11:50:15.304Z,22.98
2019-05-14T11:51:15.235Z,23.00
2019-05-14T11:52:15.174Z,22.97
2019-05-14T11:53:15.106Z,23.01
2019-05-14T11:54:15.043Z,22.88
2019-05-14T11:55:14.981Z,22.94
2019-05-14T11:56:14.908Z,23.07
2019-05-14T11:57:14.869Z,22.97
2019-05-14T11:58:14.783Z,22.95
2019-05-14T11:59:14.717Z,22.97
2019-05-14T12:00:14.651Z,23.01
2019-05-14T12:01:14.591Z,23.12
2019-05-14T12:02:14.525Z,23.12
2019-05-14T12:03:14.461Z,23.16
2019-05-14T12:04:14.397Z,23.20
2019-05-14T12:05:14.332Z,23.33
2019-05-14T12:06:14.265Z,23.33
2019-05-14T12:07:14.200Z,23.32
2019-05-14T12:08:14.139Z,23.31
2019-05-14T12:09:14.088Z,23.32
2019-05-14T12:10:14.009Z,23.20
2019-05-14T12:11:13.951Z,23.33
2019-05-14T12:12:13.881Z,23.31
2019-05-14T12:13:13.820Z,23.27
2019-05-14T12:14:13.749Z,23.32
2019-05-14T12:15:13.683Z,23.35
2019-05-14T12:16:13.619Z,23.20
2019-05-14T12:17:13.555Z,23.28
2019-05-14T12:18:13.520Z,23.20
2019-05-14T12:19:13.441Z,23.31
2019-05-14T12:20:13.360Z,23.31
2019-05-14T12:21:13.291Z,23.28
2019-05-14T12:22:13.272Z,23.23
2019-05-14T12:23:13.165Z,23.33
2019-05-14T12:24:13.954Z,23.25
2019-05-14T12:25:13.038Z,23.32
2019-05-14T12:26:12.968Z,23.36
2019-05-14T12:27:12.907Z,23.36
2019-05-14T12:28:13.749Z,23.46
2019-05-14T12:29:12.773Z,23.46
2019-05-14T12:30:12.715Z,23.38
2019-05-14T12:31:12.643Z,23.43
2019-05-14T12:32:13.249Z,23.38
2019-05-14T12:33:12.513Z,23.32
2019-05-14T12:34:12.456Z,23.33
2019-05-14T12:35:12.385Z,23.23
2019-05-14T12:36:12.321Z,23.25
2019-05-14T12:37:12.264Z,23.38
2019-05-14T12:38:12.193Z,23.47
2019-05-14T12:39:12.143Z,23.48
2019-05-14T12:40:12.060Z,23.46
2019-05-14T12:41:12.011Z,23.51
2019-05-14T12:42:11.943Z,23.48
2019-05-14T12:43:11.868Z,23.50
2019-05-14T12:44:11.802Z,23.57
2019-05-14T12:45:11.742Z,23.55
2019-05-14T12:46:11.669Z,23.54
2019-05-14T12:47:11.616Z,23.55
2019-05-14T12:48:11.545Z,23.55
2019-05-14T12:49:11.852Z,23.66
2019-05-14T12:50:11.415Z,23.69
2019-05-14T12:51:11.350Z,23.70